Horse Fly Airport

WA88 · 华盛顿州, 美国

罗盘
风向 的 Horse Fly Airport 7/25
风: 0 kt, 0 beaufort


改变
0 ft 1.000 2.000 3.000 4.000 5.000
Cloud Cloud
FEW 1.500
Cloud Cloud Cloud Cloud Cloud Cloud
BKN 2.500
Cloud Cloud Cloud Cloud Cloud Cloud
BKN 4.000
METAR KBLI 251753Z 00000KT 10SM FEW015 BKN025 BKN040 11/08 A2990 RMK AO2 SLP131 60013 T01060083 10106 20089 52022

METAR Horse Fly Airport - WA88

Horse Fly Airport是,美国中的小机场。 该机场位于纬度48,89289和经度-122,55684。 该机场有一条跑道: 7/25. 这个机场没有ICAO代码,我们使用US-D213作为参考。 该机场的本地机场标识(FAA LID)为WA88。 机场在Seattle FIR中。

该航空气象观测是针对Bellingham International Airport在2024年5月25日 10:53, 当地时间进行的。

机场观察

可变方向的风很小或没有风。

可见度为10 mi。

有几云在1.500 ft的高度, 碎云在2.500 ft的高度 和 碎云在4.000 ft的高度。 破损或更高的上限为2.500 ft。

温度和风寒是11 °C。 露点为8 °C,相对湿度为82%。 海平面上的气压为29,90 inHg (QNH)。

白天

今天,太阳从05:15升起,在20:58降落。 这适用于Horse Fly Airport,世界夏令时可能有所不同。 当地时间与世界标准时间之间的时差为-7 小时。 夏令时目前正在进行中。

公司介绍

我们没有关于这个机场的公司信息。

体会

到Vliegles.nl去找飞行课程,跳伞和其他飞行体验。 浏览页面,了解Horse Fly Airport附近所有可用的活动。 你也可以使用搜索功能来寻找你所在地附近的特定飞行课程、跳伞或其他飞行体验。

跑道

Id 标题 侧风 逆风 侧风 %
7/25 070°-250°

逆风成分最大的方向会被突出显示,并用于横风计算。 这并不一定意味着这个方向在使用。

乌云

1.500 ft FEW 几云
2.500 ft BKN 碎云
4.000 ft BKN 碎云

温度 & 天气

温度 10,6 °C
露点 8,3 °C
相对湿度 82%
Kp-index 0 (0-9)

评论

AO2自动气象站,可确定降水类型
SLP131海平面压力为29,92 inHg (29,92 inHg)
60013过去6小时内的降雨水当量为0,06 inch (0,0 mm)。
T01060083温度为10,6 °C (51,1 °F),露点为8,3 °C (46,9 °F)
10106 20089 52022

白天

日出
05:16
中午
13:07
日落
20:58 (9:25)

小工具

你想在你的网站上有一个关于Horse Fly Airport的当前航空天气(METAR)的小部件吗?

显示HTML代码
报告变更